sensor_id;sensor_type;location;lat;lon;timestamp;pressure;altitude;pressure_sealevel;temperature
70831;BMP180;58451;51.550;7.208;2023-03-31T00:01:22;99747.60;;;10.70
70831;BMP180;58451;51.550;7.208;2023-03-31T00:02:56;99748.20;;;10.70
70831;BMP180;58451;51.550;7.208;2023-03-31T00:04:28;99750.60;;;10.70
70831;BMP180;58451;51.550;7.208;2023-03-31T00:06:03;99748.60;;;10.64
70831;BMP180;58451;51.550;7.208;2023-03-31T00:07:36;99750.80;;;10.60
70831;BMP180;58451;51.550;7.208;2023-03-31T00:09:14;99750.40;;;10.60
70831;BMP180;58451;51.550;7.208;2023-03-31T00:10:49;99746.60;;;10.60
70831;BMP180;58451;51.550;7.208;2023-03-31T00:12:21;99750.60;;;10.60
70831;BMP180;58451;51.550;7.208;2023-03-31T00:13:53;99741.00;;;10.56
70831;BMP180;58451;51.550;7.208;2023-03-31T00:15:25;99744.40;;;10.50
70831;BMP180;58451;51.550;7.208;2023-03-31T00:16:57;99736.80;;;10.50
70831;BMP180;58451;51.550;7.208;2023-03-31T00:18:30;99739.40;;;10.50
70831;BMP180;58451;51.550;7.208;2023-03-31T00:20:02;99732.00;;;10.50
70831;BMP180;58451;51.550;7.208;2023-03-31T00:21:36;99726.40;;;10.46
70831;BMP180;58451;51.550;7.208;2023-03-31T00:23:07;99726.80;;;10.40
70831;BMP180;58451;51.550;7.208;2023-03-31T00:24:41;99722.60;;;10.40
70831;BMP180;58451;51.550;7.208;2023-03-31T00:26:13;99716.20;;;10.40
70831;BMP180;58451;51.550;7.208;2023-03-31T00:27:45;99714.40;;;10.40
70831;BMP180;58451;51.550;7.208;2023-03-31T00:29:17;99709.00;;;10.36
70831;BMP180;58451;51.550;7.208;2023-03-31T00:30:49;99711.80;;;10.30
70831;BMP180;58451;51.550;7.208;2023-03-31T00:32:22;99705.40;;;10.36
70831;BMP180;58451;51.550;7.208;2023-03-31T00:33:56;99702.20;;;10.30
70831;BMP180;58451;51.550;7.208;2023-03-31T00:35:28;99702.80;;;10.30
70831;BMP180;58451;51.550;7.208;2023-03-31T00:37:00;99693.80;;;10.32
70831;BMP180;58451;51.550;7.208;2023-03-31T00:38:34;99692.00;;;10.40
70831;BMP180;58451;51.550;7.208;2023-03-31T00:40:06;99683.60;;;10.40
70831;BMP180;58451;51.550;7.208;2023-03-31T00:41:43;99687.00;;;10.40
70831;BMP180;58451;51.550;7.208;2023-03-31T00:43:37;99683.60;;;10.40
70831;BMP180;58451;51.550;7.208;2023-03-31T00:47:17;99675.20;;;10.40
70831;BMP180;58451;51.550;7.208;2023-03-31T00:48:56;99670.80;;;10.40
70831;BMP180;58451;51.550;7.208;2023-03-31T00:50:34;99664.60;;;10.40
70831;BMP180;58451;51.550;7.208;2023-03-31T00:52:12;99661.60;;;10.40
70831;BMP180;58451;51.550;7.208;2023-03-31T00:53:51;99662.60;;;10.40
70831;BMP180;58451;51.550;7.208;2023-03-31T00:55:35;99662.40;;;10.40
70831;BMP180;58451;51.550;7.208;2023-03-31T00:57:10;99662.40;;;10.40
70831;BMP180;58451;51.550;7.208;2023-03-31T00:58:43;99660.00;;;10.40
70831;BMP180;58451;51.550;7.208;2023-03-31T01:00:15;99660.00;;;10.40
70831;BMP180;58451;51.550;7.208;2023-03-31T01:04:06;99648.20;;;10.50
70831;BMP180;58451;51.550;7.208;2023-03-31T01:06:02;99647.20;;;10.50
70831;BMP180;58451;51.550;7.208;2023-03-31T01:07:43;99647.80;;;10.50
70831;BMP180;58451;51.550;7.208;2023-03-31T01:09:15;99642.60;;;10.50
70831;BMP180;58451;51.550;7.208;2023-03-31T01:10:57;99642.60;;;10.58
70831;BMP180;58451;51.550;7.208;2023-03-31T01:12:32;99637.80;;;10.60
70831;BMP180;58451;51.550;7.208;2023-03-31T01:14:05;99631.80;;;10.60
70831;BMP180;58451;51.550;7.208;2023-03-31T01:15:38;99624.40;;;10.60
70831;BMP180;58451;51.550;7.208;2023-03-31T01:17:09;99623.20;;;10.60
70831;BMP180;58451;51.550;7.208;2023-03-31T01:18:42;99618.40;;;10.60
70831;BMP180;58451;51.550;7.208;2023-03-31T01:22:23;99612.20;;;10.60
70831;BMP180;58451;51.550;7.208;2023-03-31T01:37:21;99587.40;;;10.60
70831;BMP180;58451;51.550;7.208;2023-03-31T01:42:38;99589.00;;;10.60
70831;BMP180;58451;51.550;7.208;2023-03-31T01:46:17;99580.80;;;10.60
70831;BMP180;58451;51.550;7.208;2023-03-31T01:48:00;99581.00;;;10.60
70831;BMP180;58451;51.550;7.208;2023-03-31T01:50:07;99587.80;;;10.60
70831;BMP180;58451;51.550;7.208;2023-03-31T01:52:02;99585.20;;;10.60
70831;BMP180;58451;51.550;7.208;2023-03-31T01:55:28;99582.60;;;10.50
70831;BMP180;58451;51.550;7.208;2023-03-31T01:57:16;99570.20;;;10.50
70831;BMP180;58451;51.550;7.208;2023-03-31T01:59:02;99564.00;;;10.50
70831;BMP180;58451;51.550;7.208;2023-03-31T02:00:49;99559.20;;;10.50
70831;BMP180;58451;51.550;7.208;2023-03-31T02:02:35;99548.60;;;10.42
70831;BMP180;58451;51.550;7.208;2023-03-31T02:05:56;99544.20;;;10.40
70831;BMP180;58451;51.550;7.208;2023-03-31T02:07:38;99543.00;;;10.40
70831;BMP180;58451;51.550;7.208;2023-03-31T02:09:19;99537.60;;;10.40
70831;BMP180;58451;51.550;7.208;2023-03-31T02:10:54;99532.00;;;10.40
70831;BMP180;58451;51.550;7.208;2023-03-31T02:12:30;99531.00;;;10.40
70831;BMP180;58451;51.550;7.208;2023-03-31T02:14:08;99527.60;;;10.40
70831;BMP180;58451;51.550;7.208;2023-03-31T02:15:49;99523.60;;;10.40
70831;BMP180;58451;51.550;7.208;2023-03-31T02:17:25;99523.80;;;10.40
70831;BMP180;58451;51.550;7.208;2023-03-31T02:19:04;99518.60;;;10.40
70831;BMP180;58451;51.550;7.208;2023-03-31T02:20:39;99516.00;;;10.40
70831;BMP180;58451;51.550;7.208;2023-03-31T02:22:20;99509.00;;;10.40
70831;BMP180;58451;51.550;7.208;2023-03-31T02:23:54;99504.40;;;10.40
70831;BMP180;58451;51.550;7.208;2023-03-31T02:25:35;99500.60;;;10.40
70831;BMP180;58451;51.550;7.208;2023-03-31T02:27:25;99499.60;;;10.40
70831;BMP180;58451;51.550;7.208;2023-03-31T02:28:59;99487.60;;;10.40
70831;BMP180;58451;51.550;7.208;2023-03-31T02:30:49;99483.00;;;10.40
70831;BMP180;58451;51.550;7.208;2023-03-31T02:34:03;99487.00;;;10.40
70831;BMP180;58451;51.550;7.208;2023-03-31T02:35:36;99477.40;;;10.40
70831;BMP180;58451;51.550;7.208;2023-03-31T02:37:08;99472.40;;;10.40
70831;BMP180;58451;51.550;7.208;2023-03-31T02:38:53;99471.40;;;10.40
70831;BMP180;58451;51.550;7.208;2023-03-31T02:40:26;99467.40;;;10.38
70831;BMP180;58451;51.550;7.208;2023-03-31T02:41:59;99468.40;;;10.40
70831;BMP180;58451;51.550;7.208;2023-03-31T02:43:37;99462.80;;;10.34
70831;BMP180;58451;51.550;7.208;2023-03-31T02:47:17;99457.40;;;10.36
70831;BMP180;58451;51.550;7.208;2023-03-31T02:48:56;99452.40;;;10.30
70831;BMP180;58451;51.550;7.208;2023-03-31T02:50:41;99445.20;;;10.30
70831;BMP180;58451;51.550;7.208;2023-03-31T02:54:52;99434.80;;;10.30
70831;BMP180;58451;51.550;7.208;2023-03-31T02:58:34;99426.40;;;10.30
70831;BMP180;58451;51.550;7.208;2023-03-31T03:02:10;99410.60;;;10.30
70831;BMP180;58451;51.550;7.208;2023-03-31T03:08:26;99387.60;;;10.30
70831;BMP180;58451;51.550;7.208;2023-03-31T03:10:04;99383.20;;;10.26
70831;BMP180;58451;51.550;7.208;2023-03-31T03:11:56;99374.00;;;10.26
70831;BMP180;58451;51.550;7.208;2023-03-31T03:13:51;99369.60;;;10.30
70831;BMP180;58451;51.550;7.208;2023-03-31T03:15:53;99364.20;;;10.28
70831;BMP180;58451;51.550;7.208;2023-03-31T03:17:43;99360.60;;;10.20
70831;BMP180;58451;51.550;7.208;2023-03-31T03:19:21;99358.00;;;10.22
70831;BMP180;58451;51.550;7.208;2023-03-31T03:20:54;99349.40;;;10.20
70831;BMP180;58451;51.550;7.208;2023-03-31T03:22:26;99351.20;;;10.20
70831;BMP180;58451;51.550;7.208;2023-03-31T03:23:58;99352.80;;;10.20
70831;BMP180;58451;51.550;7.208;2023-03-31T03:25:32;99356.20;;;10.20
70831;BMP180;58451;51.550;7.208;2023-03-31T03:27:04;99354.60;;;10.20
70831;BMP180;58451;51.550;7.208;2023-03-31T03:28:36;99346.40;;;10.20
70831;BMP180;58451;51.550;7.208;2023-03-31T03:30:11;99339.00;;;10.20
70831;BMP180;58451;51.550;7.208;2023-03-31T03:31:43;99333.40;;;10.24
70831;BMP180;58451;51.550;7.208;2023-03-31T03:33:14;99332.40;;;10.22
70831;BMP180;58451;51.550;7.208;2023-03-31T03:34:48;99325.60;;;10.22
70831;BMP180;58451;51.550;7.208;2023-03-31T03:36:19;99320.00;;;10.20
70831;BMP180;58451;51.550;7.208;2023-03-31T03:37:52;99314.20;;;10.20
70831;BMP180;58451;51.550;7.208;2023-03-31T03:39:24;99303.00;;;10.20
70831;BMP180;58451;51.550;7.208;2023-03-31T03:40:56;99309.00;;;10.20
70831;BMP180;58451;51.550;7.208;2023-03-31T03:42:27;99308.80;;;10.20
70831;BMP180;58451;51.550;7.208;2023-03-31T03:44:00;99311.00;;;10.20
70831;BMP180;58451;51.550;7.208;2023-03-31T03:45:31;99302.00;;;10.20
70831;BMP180;58451;51.550;7.208;2023-03-31T03:47:03;99298.60;;;10.20
70831;BMP180;58451;51.550;7.208;2023-03-31T03:48:35;99291.60;;;10.20
70831;BMP180;58451;51.550;7.208;2023-03-31T03:50:08;99283.40;;;10.20
70831;BMP180;58451;51.550;7.208;2023-03-31T03:51:40;99279.40;;;10.20
70831;BMP180;58451;51.550;7.208;2023-03-31T03:53:14;99278.00;;;10.20
70831;BMP180;58451;51.550;7.208;2023-03-31T03:54:46;99278.80;;;10.20
70831;BMP180;58451;51.550;7.208;2023-03-31T03:56:17;99279.20;;;10.20
70831;BMP180;58451;51.550;7.208;2023-03-31T03:57:49;99271.20;;;10.16
70831;BMP180;58451;51.550;7.208;2023-03-31T03:59:21;99274.00;;;10.16
70831;BMP180;58451;51.550;7.208;2023-03-31T04:00:53;99271.00;;;10.14
70831;BMP180;58451;51.550;7.208;2023-03-31T04:02:27;99264.80;;;10.10
70831;BMP180;58451;51.550;7.208;2023-03-31T04:03:59;99256.40;;;10.12
70831;BMP180;58451;51.550;7.208;2023-03-31T04:05:31;99256.00;;;10.10
70831;BMP180;58451;51.550;7.208;2023-03-31T04:07:03;99257.20;;;10.10
70831;BMP180;58451;51.550;7.208;2023-03-31T04:08:35;99255.80;;;10.10
70831;BMP180;58451;51.550;7.208;2023-03-31T04:10:08;99256.40;;;10.10
70831;BMP180;58451;51.550;7.208;2023-03-31T04:11:40;99250.60;;;10.10
70831;BMP180;58451;51.550;7.208;2023-03-31T04:13:12;99242.80;;;10.10
70831;BMP180;58451;51.550;7.208;2023-03-31T04:14:44;99239.80;;;10.16
70831;BMP180;58451;51.550;7.208;2023-03-31T04:16:16;99237.20;;;10.12
70831;BMP180;58451;51.550;7.208;2023-03-31T04:17:48;99230.40;;;10.10
70831;BMP180;58451;51.550;7.208;2023-03-31T04:19:21;99220.20;;;10.10
70831;BMP180;58451;51.550;7.208;2023-03-31T04:20:56;99214.40;;;10.10
70831;BMP180;58451;51.550;7.208;2023-03-31T04:22:37;99214.80;;;10.12
70831;BMP180;58451;51.550;7.208;2023-03-31T04:24:12;99211.40;;;10.10
70831;BMP180;58451;51.550;7.208;2023-03-31T04:25:52;99203.80;;;10.12
70831;BMP180;58451;51.550;7.208;2023-03-31T04:27:24;99202.80;;;10.10
70831;BMP180;58451;51.550;7.208;2023-03-31T04:28:59;99199.00;;;10.10
70831;BMP180;58451;51.550;7.208;2023-03-31T04:30:31;99195.20;;;10.10
70831;BMP180;58451;51.550;7.208;2023-03-31T04:32:10;99195.80;;;10.10
70831;BMP180;58451;51.550;7.208;2023-03-31T04:33:45;99194.80;;;10.10
70831;BMP180;58451;51.550;7.208;2023-03-31T04:35:20;99188.20;;;10.10
70831;BMP180;58451;51.550;7.208;2023-03-31T04:36:52;99186.60;;;10.10
70831;BMP180;58451;51.550;7.208;2023-03-31T04:38:26;99183.20;;;10.10
70831;BMP180;58451;51.550;7.208;2023-03-31T04:40:05;99194.80;;;10.10
70831;BMP180;58451;51.550;7.208;2023-03-31T04:41:40;99204.00;;;10.10
70831;BMP180;58451;51.550;7.208;2023-03-31T04:43:12;99199.60;;;10.10
70831;BMP180;58451;51.550;7.208;2023-03-31T04:44:44;99185.20;;;10.10
70831;BMP180;58451;51.550;7.208;2023-03-31T04:46:16;99183.60;;;10.10
70831;BMP180;58451;51.550;7.208;2023-03-31T04:47:48;99177.40;;;10.10
70831;BMP180;58451;51.550;7.208;2023-03-31T04:49:20;99170.60;;;10.10
70831;BMP180;58451;51.550;7.208;2023-03-31T04:50:52;99158.20;;;10.10
70831;BMP180;58451;51.550;7.208;2023-03-31T04:52:24;99167.00;;;10.10
70831;BMP180;58451;51.550;7.208;2023-03-31T04:53:56;99158.60;;;10.10
70831;BMP180;58451;51.550;7.208;2023-03-31T04:55:28;99156.60;;;10.10
70831;BMP180;58451;51.550;7.208;2023-03-31T04:57:00;99155.80;;;10.10
70831;BMP180;58451;51.550;7.208;2023-03-31T04:58:32;99154.00;;;10.10
70831;BMP180;58451;51.550;7.208;2023-03-31T05:00:05;99148.00;;;10.10
70831;BMP180;58451;51.550;7.208;2023-03-31T05:01:41;99146.60;;;10.10
70831;BMP180;58451;51.550;7.208;2023-03-31T05:03:16;99146.20;;;10.10
70831;BMP180;58451;51.550;7.208;2023-03-31T05:04:51;99138.00;;;10.10
70831;BMP180;58451;51.550;7.208;2023-03-31T05:06:23;99125.00;;;10.10
70831;BMP180;58451;51.550;7.208;2023-03-31T05:07:55;99121.20;;;10.10
70831;BMP180;58451;51.550;7.208;2023-03-31T05:09:27;99119.00;;;10.10
70831;BMP180;58451;51.550;7.208;2023-03-31T05:10:58;99115.20;;;10.10
70831;BMP180;58451;51.550;7.208;2023-03-31T05:12:35;99115.80;;;10.10
70831;BMP180;58451;51.550;7.208;2023-03-31T05:14:07;99111.40;;;10.10
70831;BMP180;58451;51.550;7.208;2023-03-31T05:15:40;99107.20;;;10.10
70831;BMP180;58451;51.550;7.208;2023-03-31T05:17:12;99102.80;;;10.10
70831;BMP180;58451;51.550;7.208;2023-03-31T05:18:43;99107.40;;;10.10
70831;BMP180;58451;51.550;7.208;2023-03-31T05:20:15;99106.00;;;10.10
70831;BMP180;58451;51.550;7.208;2023-03-31T05:21:47;99094.00;;;10.10
70831;BMP180;58451;51.550;7.208;2023-03-31T05:23:19;99088.60;;;10.10
70831;BMP180;58451;51.550;7.208;2023-03-31T05:24:51;99081.40;;;10.10
70831;BMP180;58451;51.550;7.208;2023-03-31T05:26:24;99074.80;;;10.10
70831;BMP180;58451;51.550;7.208;2023-03-31T05:27:56;99066.60;;;10.10
70831;BMP180;58451;51.550;7.208;2023-03-31T05:29:28;99058.80;;;10.10
70831;BMP180;58451;51.550;7.208;2023-03-31T05:31:01;99055.80;;;10.10
70831;BMP180;58451;51.550;7.208;2023-03-31T05:32:33;99059.20;;;10.10
70831;BMP180;58451;51.550;7.208;2023-03-31T05:34:05;99059.20;;;10.08
70831;BMP180;58451;51.550;7.208;2023-03-31T05:35:37;99052.60;;;10.10
70831;BMP180;58451;51.550;7.208;2023-03-31T05:37:09;99048.20;;;10.10
70831;BMP180;58451;51.550;7.208;2023-03-31T05:38:41;99049.20;;;10.10
70831;BMP180;58451;51.550;7.208;2023-03-31T05:40:13;99038.20;;;10.10
70831;BMP180;58451;51.550;7.208;2023-03-31T05:41:45;99034.00;;;10.10
70831;BMP180;58451;51.550;7.208;2023-03-31T05:43:17;99033.20;;;10.10
70831;BMP180;58451;51.550;7.208;2023-03-31T05:44:49;99028.00;;;10.10
70831;BMP180;58451;51.550;7.208;2023-03-31T05:46:21;99024.80;;;10.10
70831;BMP180;58451;51.550;7.208;2023-03-31T05:47:53;99018.00;;;10.10
70831;BMP180;58451;51.550;7.208;2023-03-31T05:49:24;99018.40;;;10.10
70831;BMP180;58451;51.550;7.208;2023-03-31T05:50:58;99019.60;;;10.10
70831;BMP180;58451;51.550;7.208;2023-03-31T05:52:30;99009.60;;;10.14
70831;BMP180;58451;51.550;7.208;2023-03-31T05:54:03;99005.20;;;10.18
70831;BMP180;58451;51.550;7.208;2023-03-31T05:55:37;99005.80;;;10.20
70831;BMP180;58451;51.550;7.208;2023-03-31T05:57:09;98993.00;;;10.20
70831;BMP180;58451;51.550;7.208;2023-03-31T05:58:42;98985.00;;;10.20
70831;BMP180;58451;51.550;7.208;2023-03-31T06:00:14;98990.60;;;10.20
70831;BMP180;58451;51.550;7.208;2023-03-31T06:01:46;98987.00;;;10.26
70831;BMP180;58451;51.550;7.208;2023-03-31T06:03:18;98993.20;;;10.30
70831;BMP180;58451;51.550;7.208;2023-03-31T06:04:50;98986.20;;;10.30
70831;BMP180;58451;51.550;7.208;2023-03-31T06:06:22;98988.00;;;10.30
70831;BMP180;58451;51.550;7.208;2023-03-31T06:07:56;98989.20;;;10.30
70831;BMP180;58451;51.550;7.208;2023-03-31T06:09:28;98983.20;;;10.30
70831;BMP180;58451;51.550;7.208;2023-03-31T06:11:07;98981.60;;;10.34
70831;BMP180;58451;51.550;7.208;2023-03-31T06:12:39;98981.40;;;10.30
70831;BMP180;58451;51.550;7.208;2023-03-31T06:14:17;98979.60;;;10.30
70831;BMP180;58451;51.550;7.208;2023-03-31T06:15:56;98976.80;;;10.30
70831;BMP180;58451;51.550;7.208;2023-03-31T06:17:28;98977.00;;;10.30
70831;BMP180;58451;51.550;7.208;2023-03-31T06:19:00;98970.60;;;10.30
70831;BMP180;58451;51.550;7.208;2023-03-31T06:20:32;98964.40;;;10.30
70831;BMP180;58451;51.550;7.208;2023-03-31T06:22:04;98965.80;;;10.30
70831;BMP180;58451;51.550;7.208;2023-03-31T06:23:35;98959.60;;;10.30
70831;BMP180;58451;51.550;7.208;2023-03-31T06:25:08;98955.80;;;10.30
70831;BMP180;58451;51.550;7.208;2023-03-31T06:26:40;98964.40;;;10.30
70831;BMP180;58451;51.550;7.208;2023-03-31T06:28:13;98961.00;;;10.36
70831;BMP180;58451;51.550;7.208;2023-03-31T06:29:45;98960.40;;;10.30
70831;BMP180;58451;51.550;7.208;2023-03-31T06:31:22;98956.80;;;10.36
70831;BMP180;58451;51.550;7.208;2023-03-31T06:32:54;98956.80;;;10.40
70831;BMP180;58451;51.550;7.208;2023-03-31T06:34:26;98954.60;;;10.40
70831;BMP180;58451;51.550;7.208;2023-03-31T06:35:59;98946.60;;;10.40
70831;BMP180;58451;51.550;7.208;2023-03-31T06:37:32;98950.00;;;10.30
70831;BMP180;58451;51.550;7.208;2023-03-31T06:39:04;98950.60;;;10.40
70831;BMP180;58451;51.550;7.208;2023-03-31T06:40:36;98945.40;;;10.30
70831;BMP180;58451;51.550;7.208;2023-03-31T06:42:08;98952.00;;;10.30
70831;BMP180;58451;51.550;7.208;2023-03-31T06:43:44;98954.00;;;10.30
70831;BMP180;58451;51.550;7.208;2023-03-31T06:45:17;98955.20;;;10.30
70831;BMP180;58451;51.550;7.208;2023-03-31T06:46:49;98958.00;;;10.30
70831;BMP180;58451;51.550;7.208;2023-03-31T06:48:22;98951.80;;;10.30
70831;BMP180;58451;51.550;7.208;2023-03-31T06:49:55;98951.40;;;10.30
70831;BMP180;58451;51.550;7.208;2023-03-31T06:51:27;98946.80;;;10.30
70831;BMP180;58451;51.550;7.208;2023-03-31T06:53:03;98951.40;;;10.30
70831;BMP180;58451;51.550;7.208;2023-03-31T06:54:35;98945.20;;;10.30
70831;BMP180;58451;51.550;7.208;2023-03-31T06:56:07;98945.00;;;10.30
70831;BMP180;58451;51.550;7.208;2023-03-31T06:57:40;98941.20;;;10.30
70831;BMP180;58451;51.550;7.208;2023-03-31T06:59:12;98943.80;;;10.26
70831;BMP180;58451;51.550;7.208;2023-03-31T07:00:44;98949.40;;;10.26
70831;BMP180;58451;51.550;7.208;2023-03-31T07:02:19;98947.20;;;10.24
70831;BMP180;58451;51.550;7.208;2023-03-31T07:03:51;98942.00;;;10.20
70831;BMP180;58451;51.550;7.208;2023-03-31T07:05:23;98936.80;;;10.20
70831;BMP180;58451;51.550;7.208;2023-03-31T07:06:59;98947.40;;;10.20
70831;BMP180;58451;51.550;7.208;2023-03-31T07:08:32;98937.00;;;10.20
70831;BMP180;58451;51.550;7.208;2023-03-31T07:10:04;98939.20;;;10.20
70831;BMP180;58451;51.550;7.208;2023-03-31T07:11:37;98939.40;;;10.14
70831;BMP180;58451;51.550;7.208;2023-03-31T07:13:08;98940.20;;;10.20
70831;BMP180;58451;51.550;7.208;2023-03-31T07:14:40;98933.00;;;10.16
70831;BMP180;58451;51.550;7.208;2023-03-31T07:16:12;98939.80;;;10.16
70831;BMP180;58451;51.550;7.208;2023-03-31T07:17:44;98939.00;;;10.12
70831;BMP180;58451;51.550;7.208;2023-03-31T07:19:16;98942.80;;;10.20
70831;BMP180;58451;51.550;7.208;2023-03-31T07:20:49;98944.00;;;10.20
70831;BMP180;58451;51.550;7.208;2023-03-31T07:22:21;98939.40;;;10.10
70831;BMP180;58451;51.550;7.208;2023-03-31T07:23:53;98935.60;;;10.10
70831;BMP180;58451;51.550;7.208;2023-03-31T07:25:25;98933.80;;;10.20
70831;BMP180;58451;51.550;7.208;2023-03-31T07:26:58;98935.60;;;10.12
70831;BMP180;58451;51.550;7.208;2023-03-31T07:28:30;98938.20;;;10.20
70831;BMP180;58451;51.550;7.208;2023-03-31T07:30:12;98936.80;;;10.20
70831;BMP180;58451;51.550;7.208;2023-03-31T07:31:46;98936.80;;;10.20
70831;BMP180;58451;51.550;7.208;2023-03-31T07:33:18;98942.60;;;10.20
70831;BMP180;58451;51.550;7.208;2023-03-31T07:34:50;98935.00;;;10.12
70831;BMP180;58451;51.550;7.208;2023-03-31T07:36:22;98935.00;;;10.10
70831;BMP180;58451;51.550;7.208;2023-03-31T07:37:54;98928.60;;;10.10
70831;BMP180;58451;51.550;7.208;2023-03-31T07:39:26;98927.00;;;10.10
70831;BMP180;58451;51.550;7.208;2023-03-31T07:40:58;98930.20;;;10.10
70831;BMP180;58451;51.550;7.208;2023-03-31T07:42:41;98923.20;;;10.10
70831;BMP180;58451;51.550;7.208;2023-03-31T07:44:13;98923.00;;;10.10
70831;BMP180;58451;51.550;7.208;2023-03-31T07:45:48;98925.80;;;10.08
70831;BMP180;58451;51.550;7.208;2023-03-31T07:47:20;98929.80;;;10.02
70831;BMP180;58451;51.550;7.208;2023-03-31T07:48:55;98925.40;;;10.00
70831;BMP180;58451;51.550;7.208;2023-03-31T07:50:27;98928.00;;;10.00
70831;BMP180;58451;51.550;7.208;2023-03-31T07:52:00;98923.40;;;10.00
70831;BMP180;58451;51.550;7.208;2023-03-31T07:53:32;98920.20;;;10.08
70831;BMP180;58451;51.550;7.208;2023-03-31T07:55:05;98918.20;;;10.10
70831;BMP180;58451;51.550;7.208;2023-03-31T07:56:38;98923.40;;;10.10
70831;BMP180;58451;51.550;7.208;2023-03-31T07:58:10;98926.00;;;10.16
70831;BMP180;58451;51.550;7.208;2023-03-31T07:59:42;98927.80;;;10.20
70831;BMP180;58451;51.550;7.208;2023-03-31T08:01:16;98937.60;;;10.26
70831;BMP180;58451;51.550;7.208;2023-03-31T08:02:49;98938.40;;;10.30
70831;BMP180;58451;51.550;7.208;2023-03-31T08:04:21;98939.00;;;10.30
70831;BMP180;58451;51.550;7.208;2023-03-31T08:05:54;98931.20;;;10.40
70831;BMP180;58451;51.550;7.208;2023-03-31T08:07:26;98932.80;;;10.40
70831;BMP180;58451;51.550;7.208;2023-03-31T08:09:02;98928.00;;;10.40
70831;BMP180;58451;51.550;7.208;2023-03-31T08:10:36;98928.40;;;10.40
70831;BMP180;58451;51.550;7.208;2023-03-31T08:12:07;98928.00;;;10.40
70831;BMP180;58451;51.550;7.208;2023-03-31T08:13:39;98925.60;;;10.40
70831;BMP180;58451;51.550;7.208;2023-03-31T08:15:11;98922.40;;;10.40
70831;BMP180;58451;51.550;7.208;2023-03-31T08:16:43;98924.60;;;10.40
70831;BMP180;58451;51.550;7.208;2023-03-31T08:18:15;98916.80;;;10.50
70831;BMP180;58451;51.550;7.208;2023-03-31T08:19:47;98912.40;;;10.50
70831;BMP180;58451;51.550;7.208;2023-03-31T08:21:20;98913.40;;;10.56
70831;BMP180;58451;51.550;7.208;2023-03-31T08:22:55;98911.20;;;10.60
70831;BMP180;58451;51.550;7.208;2023-03-31T08:24:26;98914.60;;;10.60
70831;BMP180;58451;51.550;7.208;2023-03-31T08:26:11;98911.00;;;10.70
70831;BMP180;58451;51.550;7.208;2023-03-31T08:27:47;98911.00;;;10.80
70831;BMP180;58451;51.550;7.208;2023-03-31T08:29:22;98910.80;;;10.84
70831;BMP180;58451;51.550;7.208;2023-03-31T08:30:53;98909.00;;;10.90
70831;BMP180;58451;51.550;7.208;2023-03-31T08:32:25;98909.80;;;10.90
70831;BMP180;58451;51.550;7.208;2023-03-31T08:33:57;98892.20;;;11.00
70831;BMP180;58451;51.550;7.208;2023-03-31T08:35:30;98892.00;;;10.96
70831;BMP180;58451;51.550;7.208;2023-03-31T08:37:01;98885.20;;;10.90
70831;BMP180;58451;51.550;7.208;2023-03-31T08:38:37;98888.80;;;10.88
70831;BMP180;58451;51.550;7.208;2023-03-31T08:40:20;98885.20;;;10.90
70831;BMP180;58451;51.550;7.208;2023-03-31T08:42:04;98881.40;;;10.80
70831;BMP180;58451;51.550;7.208;2023-03-31T08:43:45;98883.40;;;10.80
70831;BMP180;58451;51.550;7.208;2023-03-31T08:45:41;98890.00;;;10.90
70831;BMP180;58451;51.550;7.208;2023-03-31T08:47:19;98879.40;;;10.80
70831;BMP180;58451;51.550;7.208;2023-03-31T08:48:55;98883.20;;;10.80
70831;BMP180;58451;51.550;7.208;2023-03-31T08:50:32;98877.60;;;10.80
70831;BMP180;58451;51.550;7.208;2023-03-31T08:52:13;98871.80;;;10.80
70831;BMP180;58451;51.550;7.208;2023-03-31T08:53:58;98862.80;;;10.80
70831;BMP180;58451;51.550;7.208;2023-03-31T08:55:47;98862.40;;;10.90
70831;BMP180;58451;51.550;7.208;2023-03-31T08:57:32;98861.60;;;11.00
70831;BMP180;58451;51.550;7.208;2023-03-31T08:59:34;98863.40;;;11.00
70831;BMP180;58451;51.550;7.208;2023-03-31T09:03:02;98866.40;;;11.28
70831;BMP180;58451;51.550;7.208;2023-03-31T09:07:14;98866.40;;;11.40
70831;BMP180;58451;51.550;7.208;2023-03-31T09:08:53;98864.20;;;11.50
70831;BMP180;58451;51.550;7.208;2023-03-31T09:12:17;98860.20;;;11.70
70831;BMP180;58451;51.550;7.208;2023-03-31T09:14:12;98861.00;;;11.80
70831;BMP180;58451;51.550;7.208;2023-03-31T09:17:43;98856.80;;;12.00
70831;BMP180;58451;51.550;7.208;2023-03-31T09:19:59;98855.20;;;12.10
70831;BMP180;58451;51.550;7.208;2023-03-31T09:21:54;98850.60;;;12.10
70831;BMP180;58451;51.550;7.208;2023-03-31T09:23:45;98848.80;;;12.10
70831;BMP180;58451;51.550;7.208;2023-03-31T09:25:35;98847.80;;;12.10
70831;BMP180;58451;51.550;7.208;2023-03-31T09:27:11;98851.40;;;12.04
70831;BMP180;58451;51.550;7.208;2023-03-31T09:28:44;98851.00;;;12.00
70831;BMP180;58451;51.550;7.208;2023-03-31T09:30:26;98844.60;;;12.00
70831;BMP180;58451;51.550;7.208;2023-03-31T09:32:22;98849.00;;;11.98
70831;BMP180;58451;51.550;7.208;2023-03-31T09:34:00;98844.40;;;12.00
70831;BMP180;58451;51.550;7.208;2023-03-31T09:35:40;98842.40;;;11.90
70831;BMP180;58451;51.550;7.208;2023-03-31T09:37:15;98846.00;;;11.90
70831;BMP180;58451;51.550;7.208;2023-03-31T09:38:48;98842.80;;;11.90
70831;BMP180;58451;51.550;7.208;2023-03-31T09:40:24;98837.00;;;11.90
70831;BMP180;58451;51.550;7.208;2023-03-31T09:41:56;98837.60;;;11.80
70831;BMP180;58451;51.550;7.208;2023-03-31T09:43:32;98836.40;;;11.80
70831;BMP180;58451;51.550;7.208;2023-03-31T09:45:17;98832.60;;;11.90
70831;BMP180;58451;51.550;7.208;2023-03-31T09:46:51;98836.40;;;11.90
70831;BMP180;58451;51.550;7.208;2023-03-31T09:48:28;98831.40;;;11.90
70831;BMP180;58451;51.550;7.208;2023-03-31T09:50:01;98828.40;;;11.84
70831;BMP180;58451;51.550;7.208;2023-03-31T09:51:36;98820.60;;;11.90
70831;BMP180;58451;51.550;7.208;2023-03-31T09:53:19;98815.80;;;11.90
70831;BMP180;58451;51.550;7.208;2023-03-31T09:54:54;98821.20;;;12.00
70831;BMP180;58451;51.550;7.208;2023-03-31T09:58:16;98816.80;;;12.00
70831;BMP180;58451;51.550;7.208;2023-03-31T09:59:50;98807.00;;;12.00
70831;BMP180;58451;51.550;7.208;2023-03-31T10:01:22;98807.80;;;12.10
70831;BMP180;58451;51.550;7.208;2023-03-31T10:02:56;98806.80;;;12.10
70831;BMP180;58451;51.550;7.208;2023-03-31T10:04:33;98804.80;;;12.20